Terminal Aerodrome Forecast
Issued by NWS

Home | Current Version | Previous Version | Text Only | Print | Product List | Glossary On
Versions: 1 2 3 4 5 6 7 8 9 10 11 12 13 14 15 16 17 18 19
000
FTUS46 KLOX 291100
TAFLGB
TAF
KLGB 291128Z 2912/3012 VRB03KT P6SM SCT150
     FM291900 20008KT P6SM SKC
     FM292300 30008KT P6SM SKC
     FM300500 VRB03KT P6SM SKC
     FM301000 VRB03KT P6SM BKN007=

USA.gov is the U.S. government's official web portal to all federal, state and local government web resources and services.